createdAt,value
2018-07-06T00:01:28.495Z,70.90
2018-07-06T00:17:08.742Z,71.00
2018-07-06T00:19:48.625Z,73.20
2018-07-06T00:22:28.568Z,72.50
2018-07-06T00:25:08.484Z,72.40
2018-07-06T00:27:49.056Z,72.50
2018-07-06T00:30:29.016Z,72.30
2018-07-06T00:33:08.868Z,72.20
2018-07-06T00:35:48.494Z,72.10
2018-07-06T00:38:28.236Z,71.90
2018-07-06T00:41:11.901Z,71.80
2018-07-06T00:43:53.188Z,72.30
2018-07-06T00:46:32.958Z,72.30
2018-07-06T00:49:12.955Z,72.00
2018-07-06T00:51:52.604Z,71.90
2018-07-06T00:54:32.764Z,72.10
2018-07-06T00:57:12.785Z,71.80
2018-07-06T00:59:54.286Z,71.60
2018-07-06T01:02:33.815Z,71.50
2018-07-06T01:14:58.453Z,70.90
2018-07-06T01:17:38.110Z,72.80
2018-07-06T01:20:17.752Z,72.40
2018-07-06T01:22:58.017Z,71.70
2018-07-06T01:25:38.267Z,71.50
2018-07-06T01:28:17.967Z,70.80
2018-07-06T01:30:57.486Z,70.90
2018-07-06T01:33:36.995Z,70.50
2018-07-06T01:36:16.734Z,70.20
2018-07-06T01:38:56.402Z,69.90
2018-07-06T01:54:36.720Z,69.70
2018-07-06T01:57:16.481Z,71.80
2018-07-06T01:59:57.118Z,72.10
2018-07-06T02:02:36.897Z,71.70
2018-07-06T02:05:21.638Z,71.20
2018-07-06T02:08:01.473Z,70.90
2018-07-06T02:10:42.553Z,71.10
2018-07-06T02:13:22.301Z,71.30
2018-07-06T02:16:02.057Z,71.40
2018-07-06T02:18:45.676Z,71.30
2018-07-06T02:21:25.673Z,70.70
2018-07-06T02:24:05.806Z,71.40
2018-07-06T02:26:45.777Z,72.30
2018-07-06T02:29:25.493Z,72.10
2018-07-06T02:32:05.053Z,72.50
2018-07-06T02:34:49.210Z,72.90
2018-07-06T02:37:33.105Z,73.00
2018-07-06T02:40:12.693Z,74.00
2018-07-06T02:42:52.324Z,73.50
2018-07-06T02:45:32.116Z,73.80
2018-07-06T02:48:11.768Z,74.20
2018-07-06T02:50:51.374Z,74.70
2018-07-06T02:53:31.816Z,74.70
2018-07-06T02:56:11.453Z,75.40
2018-07-06T02:58:51.125Z,74.20
2018-07-06T03:01:31.461Z,74.70
2018-07-06T03:04:11.160Z,74.80
2018-07-06T03:06:50.912Z,75.10
2018-07-06T03:09:30.601Z,75.10
2018-07-06T03:12:11.481Z,75.20
2018-07-06T03:14:54.964Z,75.20
2018-07-06T03:30:35.423Z,75.30
2018-07-06T03:33:15.512Z,77.10
2018-07-06T03:35:55.384Z,76.70
2018-07-06T03:38:35.111Z,75.40
2018-07-06T03:41:14.799Z,74.40
2018-07-06T03:43:56.761Z,73.70
2018-07-06T03:46:36.444Z,73.10
2018-07-06T03:49:17.297Z,73.10
2018-07-06T03:51:56.894Z,72.90
2018-07-06T03:54:36.481Z,72.30
2018-07-06T03:57:16.200Z,72.80
2018-07-06T03:59:55.906Z,72.80
2018-07-06T04:02:35.693Z,72.80
2018-07-06T04:05:15.458Z,72.60
2018-07-06T04:07:55.301Z,72.10
2018-07-06T04:10:39.353Z,72.40
2018-07-06T04:13:19.019Z,72.20
2018-07-06T04:15:58.761Z,72.70
2018-07-06T04:18:38.382Z,72.70
2018-07-06T04:21:18.230Z,72.90
2018-07-06T04:23:57.845Z,72.80
2018-07-06T04:26:38.420Z,72.60
2018-07-06T04:29:18.120Z,73.00
2018-07-06T04:31:58.489Z,73.60
2018-07-06T04:34:38.195Z,73.70
2018-07-06T04:37:17.884Z,73.90
2018-07-06T04:39:57.458Z,74.40
2018-07-06T04:42:37.277Z,74.70
2018-07-06T04:45:17.009Z,74.90
2018-07-06T04:47:57.161Z,75.30
2018-07-06T04:50:36.849Z,75.60
2018-07-06T04:53:16.924Z,75.20
2018-07-06T04:55:56.665Z,75.40
2018-07-06T04:58:36.643Z,75.50
2018-07-06T05:01:16.484Z,75.60
2018-07-06T05:03:56.613Z,75.80
2018-07-06T05:06:36.658Z,76.40
2018-07-06T05:09:16.316Z,76.80
2018-07-06T05:11:56.119Z,77.50
2018-07-06T05:14:35.824Z,78.00
2018-07-06T05:17:19.864Z,78.60
2018-07-06T05:19:59.494Z,78.50
2018-07-06T05:22:39.190Z,78.00
2018-07-06T05:25:18.984Z,78.20
2018-07-06T05:27:58.699Z,78.20
2018-07-06T05:30:39.996Z,78.60
2018-07-06T05:33:24.161Z,78.50
2018-07-06T05:36:04.013Z,78.90
2018-07-06T05:38:43.660Z,79.00
2018-07-06T05:41:23.419Z,79.10
2018-07-06T05:44:03.841Z,78.60
2018-07-06T05:46:43.671Z,79.10
2018-07-06T05:49:23.406Z,79.70
2018-07-06T05:52:03.028Z,80.10
2018-07-06T05:54:43.129Z,80.00
2018-07-06T05:57:23.086Z,79.90
2018-07-06T06:00:02.937Z,80.20
2018-07-06T06:02:43.365Z,80.10
2018-07-06T06:05:23.933Z,80.00
2018-07-06T06:07:51.230Z,80.40
2018-07-06T06:10:19.660Z,80.40
2018-07-06T06:12:48.104Z,80.60
2018-07-06T06:15:16.515Z,80.70
2018-07-06T06:17:45.133Z,80.80
2018-07-06T06:20:16.689Z,81.10
2018-07-06T06:22:46.325Z,81.20
2018-07-06T06:25:14.747Z,81.00
2018-07-06T06:27:43.412Z,80.90
2018-07-06T06:30:11.905Z,81.60
2018-07-06T06:32:40.421Z,81.30
2018-07-06T06:35:09.616Z,80.70
2018-07-06T06:37:38.097Z,80.80
2018-07-06T06:40:06.584Z,80.90
2018-07-06T06:42:35.078Z,81.70
2018-07-06T06:45:03.676Z,82.20
2018-07-06T06:47:36.240Z,82.20
2018-07-06T06:50:05.149Z,82.10
2018-07-06T06:52:34.295Z,82.60
2018-07-06T06:55:07.513Z,83.20
2018-07-06T06:57:35.944Z,83.60
2018-07-06T07:00:04.546Z,83.10
2018-07-06T07:02:37.465Z,84.30
2018-07-06T07:05:05.913Z,82.80
2018-07-06T07:07:35.170Z,83.90
2018-07-06T07:10:03.608Z,85.00
2018-07-06T07:12:32.066Z,83.90
2018-07-06T07:15:00.600Z,84.20
2018-07-06T07:17:29.076Z,83.30
2018-07-06T07:19:58.055Z,82.50
2018-07-06T07:22:26.813Z,83.20
2018-07-06T07:24:55.338Z,82.20
2018-07-06T07:27:23.761Z,81.90
2018-07-06T07:29:52.526Z,81.90
2018-07-06T07:32:21.180Z,81.30
2018-07-06T07:34:54.130Z,81.10
2018-07-06T07:37:23.392Z,81.10
2018-07-06T07:39:52.438Z,80.20
2018-07-06T07:42:20.836Z,80.40
2018-07-06T07:44:55.973Z,80.70
2018-07-06T07:47:25.046Z,80.80
2018-07-06T07:49:54.282Z,81.10
2018-07-06T07:52:34.118Z,81.00
2018-07-06T07:55:03.789Z,80.60
2018-07-06T07:57:33.008Z,80.80
2018-07-06T08:00:01.454Z,80.50
2018-07-06T08:02:29.965Z,79.90
2018-07-06T08:04:58.387Z,80.20
2018-07-06T08:07:26.926Z,80.60
2018-07-06T08:09:55.721Z,80.80
2018-07-06T08:12:24.329Z,79.70
2018-07-06T08:14:53.148Z,79.80
2018-07-06T08:17:22.358Z,79.80
2018-07-06T08:19:50.959Z,79.40
2018-07-06T08:22:19.393Z,79.80
2018-07-06T08:24:47.811Z,80.20
2018-07-06T08:27:16.289Z,80.40
2018-07-06T08:29:44.772Z,80.60
2018-07-06T08:32:13.217Z,80.80
2018-07-06T08:34:52.981Z,81.20
2018-07-06T08:37:35.198Z,81.60
2018-07-06T08:40:03.777Z,81.30
2018-07-06T08:42:33.260Z,81.50
2018-07-06T08:45:02.216Z,81.50
2018-07-06T08:47:30.636Z,82.30
2018-07-06T08:50:00.145Z,81.80
2018-07-06T08:52:29.321Z,81.70
2018-07-06T08:54:57.872Z,81.40
2018-07-06T08:57:27.549Z,80.20
2018-07-06T08:59:56.349Z,79.90
2018-07-06T09:02:25.213Z,79.30
2018-07-06T09:04:54.637Z,79.60
2018-07-06T09:07:27.585Z,80.50
2018-07-06T09:09:57.047Z,81.50
2018-07-06T09:12:25.609Z,81.60
2018-07-06T09:14:54.410Z,81.70
2018-07-06T09:17:23.912Z,81.40
2018-07-06T09:22:21.196Z,81.00
2018-07-06T09:24:50.936Z,80.20
2018-07-06T09:27:19.385Z,79.80
2018-07-06T09:29:48.613Z,79.50
2018-07-06T09:32:17.318Z,78.80
2018-07-06T09:34:47.098Z,78.20
2018-07-06T09:37:15.664Z,78.60
2018-07-06T09:39:45.341Z,76.60
2018-07-06T09:42:14.761Z,75.30
2018-07-06T09:44:47.901Z,76.10
2018-07-06T09:47:16.393Z,76.00
2018-07-06T09:49:44.884Z,75.70
2018-07-06T09:52:14.464Z,74.50
2018-07-06T09:54:42.902Z,73.70
2018-07-06T09:57:11.365Z,74.40
2018-07-06T09:59:39.852Z,75.00
2018-07-06T10:02:08.309Z,75.00
2018-07-06T10:04:40.853Z,75.90
2018-07-06T10:07:09.450Z,76.00
2018-07-06T10:09:37.977Z,76.20
2018-07-06T10:12:07.101Z,73.00
2018-07-06T10:14:35.577Z,71.70
2018-07-06T10:17:04.198Z,72.00
2018-07-06T10:19:32.862Z,72.40
2018-07-06T10:22:01.422Z,71.30
2018-07-06T10:24:29.852Z,69.20
2018-07-06T10:26:58.347Z,69.20
2018-07-06T10:30:34.700Z,68.60
2018-07-06T10:33:03.321Z,68.30
2018-07-06T10:35:32.099Z,66.10
2018-07-06T10:38:00.622Z,66.20
2018-07-06T10:40:29.759Z,65.80
2018-07-06T10:42:58.230Z,66.00
2018-07-06T10:45:26.677Z,64.30
2018-07-06T10:47:55.177Z,63.80
2018-07-06T10:50:23.695Z,63.50
2018-07-06T10:52:52.148Z,64.00
2018-07-06T10:55:20.619Z,63.90
2018-07-06T10:57:49.149Z,64.00
2018-07-06T11:00:17.685Z,62.90
2018-07-06T11:02:46.733Z,63.60
2018-07-06T11:05:15.736Z,64.20
2018-07-06T11:07:44.359Z,64.40
2018-07-06T11:10:13.680Z,64.20
2018-07-06T11:12:42.353Z,64.30
2018-07-06T11:15:10.908Z,64.30
2018-07-06T11:17:39.454Z,64.50
2018-07-06T11:20:07.920Z,64.90
2018-07-06T11:22:36.388Z,65.60
2018-07-06T11:25:04.909Z,65.00
2018-07-06T11:27:33.468Z,66.20
2018-07-06T11:30:01.975Z,65.70
2018-07-06T11:32:30.504Z,65.40
2018-07-06T11:34:59.504Z,65.50
2018-07-06T11:37:28.185Z,65.90
2018-07-06T11:39:56.683Z,66.30
2018-07-06T11:42:25.144Z,66.00
2018-07-06T11:44:54.415Z,66.70
2018-07-06T11:47:22.919Z,65.70
2018-07-06T11:49:51.372Z,64.90
2018-07-06T11:52:19.804Z,65.10
2018-07-06T11:54:48.228Z,66.00
2018-07-06T11:57:16.826Z,65.90
2018-07-06T11:59:50.012Z,66.20
2018-07-06T12:02:18.590Z,65.30
2018-07-06T12:04:47.000Z,64.60
2018-07-06T12:07:15.454Z,64.50
2018-07-06T12:09:43.996Z,63.40
2018-07-06T12:12:12.452Z,62.90
2018-07-06T12:14:41.546Z,62.10
2018-07-06T12:17:09.976Z,60.90
2018-07-06T12:19:39.089Z,60.00
2018-07-06T12:22:08.321Z,59.20
2018-07-06T12:24:36.802Z,59.80
2018-07-06T12:27:05.612Z,58.70
2018-07-06T12:29:34.396Z,59.60
2018-07-06T12:32:02.872Z,59.50
2018-07-06T13:09:06.819Z,57.60
2018-07-06T13:11:35.293Z,57.30
2018-07-06T13:14:04.660Z,57.90
2018-07-06T13:16:33.698Z,56.70
2018-07-06T13:19:02.204Z,56.90
2018-07-06T13:21:30.669Z,55.40
2018-07-06T13:23:59.238Z,52.90
2018-07-06T13:26:27.774Z,50.90
2018-07-06T13:28:56.392Z,51.90
2018-07-06T13:31:24.950Z,51.00
2018-07-06T13:33:53.466Z,51.10
2018-07-06T13:36:21.837Z,50.90
2018-07-06T13:38:50.249Z,50.10
2018-07-06T13:41:18.732Z,49.60
2018-07-06T13:43:47.265Z,49.40
2018-07-06T13:46:15.784Z,49.60
2018-07-06T13:48:44.194Z,50.00
2018-07-06T13:51:12.781Z,50.10
2018-07-06T13:53:41.236Z,50.20
2018-07-06T13:56:09.681Z,48.50
2018-07-06T13:58:38.793Z,48.00
2018-07-06T14:01:07.217Z,47.60
2018-07-06T14:03:35.831Z,46.40
2018-07-06T14:06:04.345Z,47.00
2018-07-06T14:08:32.880Z,46.70
2018-07-06T14:11:01.656Z,45.90
2018-07-06T14:13:30.110Z,45.20
2018-07-06T14:15:59.338Z,45.00
2018-07-06T14:18:28.491Z,44.60
2018-07-06T14:20:57.494Z,45.10
2018-07-06T14:23:25.977Z,44.00
2018-07-06T14:25:55.316Z,44.50
2018-07-06T14:28:24.626Z,44.00
2018-07-06T14:30:53.093Z,43.90
2018-07-06T14:43:11.857Z,44.00
2018-07-06T14:45:40.369Z,43.20
2018-07-06T14:50:38.250Z,43.70
2018-07-06T14:53:06.779Z,43.20
2018-07-06T14:55:35.259Z,44.10
2018-07-06T14:58:03.717Z,42.50
2018-07-06T15:00:32.174Z,41.40
2018-07-06T15:05:29.097Z,41.30
2018-07-06T15:07:57.584Z,39.70
2018-07-06T15:10:26.494Z,40.80
2018-07-06T15:12:55.045Z,39.60
2018-07-06T15:15:24.627Z,39.60
2018-07-06T15:17:53.787Z,39.90
2018-07-06T15:20:22.297Z,40.70
2018-07-06T15:22:51.521Z,41.50
2018-07-06T15:25:20.142Z,41.10
2018-07-06T15:27:48.671Z,41.20
2018-07-06T15:30:17.114Z,41.00
2018-07-06T15:32:46.238Z,41.10
2018-07-06T15:35:15.454Z,41.80
2018-07-06T15:37:44.254Z,39.60
2018-07-06T15:40:13.460Z,39.80
2018-07-06T15:42:41.917Z,40.40
2018-07-06T15:45:10.464Z,39.50
2018-07-06T15:47:39.774Z,39.80
2018-07-06T15:50:12.705Z,39.50
2018-07-06T15:52:41.276Z,39.00
2018-07-06T15:55:14.294Z,38.90
2018-07-06T15:57:42.721Z,37.90
2018-07-06T16:00:11.299Z,38.00
2018-07-06T16:02:39.706Z,37.50
2018-07-06T16:05:08.914Z,37.20
2018-07-06T16:07:37.700Z,38.10
2018-07-06T16:10:06.222Z,38.10
2018-07-06T16:12:35.015Z,37.20
2018-07-06T16:15:03.518Z,37.10
2018-07-06T16:17:32.482Z,35.30
2018-07-06T16:20:00.929Z,34.80
2018-07-06T16:22:29.388Z,34.50
2018-07-06T16:24:58.060Z,34.70
2018-07-06T16:27:27.829Z,33.60
2018-07-06T16:29:57.071Z,33.40
2018-07-06T16:32:25.552Z,32.70
2018-07-06T16:34:54.011Z,32.90
2018-07-06T16:37:23.449Z,33.20
2018-07-06T16:39:52.576Z,32.60
2018-07-06T16:42:21.013Z,32.80
2018-07-06T16:44:49.457Z,32.60
2018-07-06T16:47:17.902Z,32.90
2018-07-06T16:49:46.455Z,32.40
2018-07-06T16:52:15.352Z,33.00
2018-07-06T16:54:43.780Z,31.70
2018-07-06T16:57:12.609Z,31.80
2018-07-06T16:59:41.381Z,31.40
2018-07-06T17:02:09.857Z,31.30
2018-07-06T17:04:38.336Z,30.90
2018-07-06T17:07:07.230Z,31.80
2018-07-06T17:09:37.077Z,31.30
2018-07-06T17:12:06.227Z,31.90
2018-07-06T17:14:40.341Z,31.60
2018-07-06T17:17:09.430Z,31.00
2018-07-06T17:19:37.883Z,31.60
2018-07-06T17:22:07.091Z,32.00
2018-07-06T17:24:35.640Z,30.60
2018-07-06T17:27:04.272Z,31.00
2018-07-06T17:29:33.591Z,30.70
2018-07-06T17:32:02.056Z,31.10
2018-07-06T17:34:30.824Z,31.20
2018-07-06T17:36:59.318Z,31.80
2018-07-06T17:39:27.793Z,32.10
2018-07-06T17:41:56.240Z,33.50
2018-07-06T17:44:24.811Z,32.50
2018-07-06T17:46:53.437Z,32.90
2018-07-06T17:49:22.722Z,33.00
2018-07-06T17:51:51.194Z,33.30
2018-07-06T17:54:20.545Z,32.50
2018-07-06T17:56:49.110Z,32.70
2018-07-06T17:59:17.603Z,33.00
2018-07-06T18:01:46.118Z,33.20
2018-07-06T18:04:14.588Z,33.80
2018-07-06T18:06:43.174Z,34.10
2018-07-06T18:09:11.652Z,34.80
2018-07-06T18:11:40.192Z,34.80
2018-07-06T18:14:08.740Z,34.80
2018-07-06T18:16:37.320Z,34.80
2018-07-06T18:19:06.087Z,34.60
2018-07-06T18:21:34.608Z,34.70
2018-07-06T18:24:03.669Z,34.20
2018-07-06T18:26:36.170Z,34.10
2018-07-06T18:29:05.268Z,34.80
2018-07-06T18:31:33.857Z,34.90
2018-07-06T18:34:03.424Z,35.00
2018-07-06T18:36:31.863Z,35.10
2018-07-06T18:39:00.639Z,35.70
2018-07-06T18:41:29.104Z,35.40
2018-07-06T18:43:57.579Z,36.10
2018-07-06T18:46:26.279Z,36.00
2018-07-06T18:48:54.865Z,35.90
2018-07-06T18:51:23.909Z,36.30
2018-07-06T18:53:52.356Z,36.60
2018-07-06T18:56:21.203Z,36.80
2018-07-06T18:58:50.325Z,37.40
2018-07-06T19:01:18.890Z,37.50
2018-07-06T19:03:47.373Z,37.50
2018-07-06T19:06:16.060Z,38.30
2018-07-06T19:08:45.454Z,37.90
2018-07-06T19:11:14.004Z,37.60
2018-07-06T19:13:42.586Z,37.80
2018-07-06T19:16:11.130Z,38.20
2018-07-06T19:18:39.559Z,38.80
2018-07-06T19:21:09.145Z,38.30
2018-07-06T19:23:37.593Z,37.30
2018-07-06T19:26:06.889Z,37.50
2018-07-06T19:28:35.371Z,37.40
2018-07-06T19:31:05.056Z,37.60
2018-07-06T19:33:34.085Z,37.30
2018-07-06T19:36:02.608Z,37.60
2018-07-06T19:38:31.752Z,38.10
2018-07-06T19:41:00.236Z,38.90
2018-07-06T19:43:28.911Z,38.00
2018-07-06T19:45:57.381Z,38.80
2018-07-06T19:48:26.469Z,39.10
2018-07-06T19:50:55.420Z,38.70
2018-07-06T19:53:23.962Z,37.80
2018-07-06T19:55:52.429Z,37.80
2018-07-06T19:58:20.952Z,38.00
2018-07-06T20:00:49.743Z,38.70
2018-07-06T20:03:22.506Z,38.10
2018-07-06T20:05:50.999Z,38.20
2018-07-06T20:08:20.665Z,38.80
2018-07-06T20:10:49.135Z,38.90
2018-07-06T20:13:18.231Z,39.60
2018-07-06T20:15:47.296Z,40.40
2018-07-06T20:18:16.189Z,40.60
2018-07-06T20:20:44.655Z,41.00
2018-07-06T20:23:13.228Z,41.50
2018-07-06T20:25:41.891Z,42.10
2018-07-06T20:41:15.485Z,42.60
2018-07-06T20:43:44.807Z,47.10
2018-07-06T20:46:13.317Z,47.10
2018-07-06T20:48:41.846Z,47.20
2018-07-06T20:51:10.311Z,47.30
2018-07-06T20:53:38.908Z,47.40
2018-07-06T20:56:07.371Z,47.60
2018-07-06T20:58:43.547Z,47.70
2018-07-06T21:01:12.129Z,48.10
2018-07-06T21:03:40.774Z,48.50
2018-07-06T21:06:11.013Z,48.40
2018-07-06T21:11:07.929Z,49.10
2018-07-06T21:13:36.988Z,49.70
2018-07-06T21:16:05.581Z,50.40
2018-07-06T21:18:34.037Z,51.50
2018-07-06T21:21:02.649Z,52.10
2018-07-06T21:23:31.203Z,52.30
2018-07-06T21:25:59.741Z,52.80
2018-07-06T21:41:34.325Z,53.00
2018-07-06T21:44:02.845Z,57.00
2018-07-06T21:46:31.325Z,57.90
2018-07-06T21:49:00.468Z,58.60
2018-07-06T21:51:29.000Z,59.10
2018-07-06T21:53:57.869Z,59.40
2018-07-06T21:56:26.393Z,59.70
2018-07-06T21:58:55.209Z,59.60
2018-07-06T22:01:23.883Z,59.90
2018-07-06T22:03:52.699Z,60.20
2018-07-06T22:06:21.433Z,60.10
2018-07-06T22:08:49.915Z,60.00
2018-07-06T22:11:18.437Z,60.40
2018-07-06T22:13:47.526Z,60.80
2018-07-06T22:16:16.522Z,62.10
2018-07-06T22:18:44.986Z,62.10
2018-07-06T22:21:13.548Z,62.60
2018-07-06T22:23:42.881Z,63.20
2018-07-06T22:26:12.326Z,63.40
2018-07-06T22:28:40.792Z,63.70
2018-07-06T22:31:09.885Z,64.10
2018-07-06T22:33:38.385Z,64.40
2018-07-06T22:36:06.881Z,64.60
2018-07-06T22:38:40.478Z,65.10
2018-07-06T22:41:09.029Z,65.30
2018-07-06T22:43:37.544Z,65.70
2018-07-06T22:46:06.127Z,65.80
2018-07-06T22:48:34.587Z,66.20
2018-07-06T22:51:03.201Z,66.40
2018-07-06T22:53:31.660Z,66.40
2018-07-06T22:56:00.942Z,66.40
2018-07-06T22:58:29.455Z,66.00
2018-07-06T23:00:58.598Z,66.30
2018-07-06T23:13:12.120Z,66.90
2018-07-06T23:15:40.653Z,70.30
2018-07-06T23:18:09.180Z,70.20
2018-07-06T23:20:37.974Z,69.70
2018-07-06T23:23:11.366Z,69.60
2018-07-06T23:25:41.879Z,69.40
2018-07-06T23:28:10.349Z,69.40
2018-07-06T23:30:38.862Z,69.20
2018-07-06T23:33:08.097Z,69.20
2018-07-06T23:35:37.341Z,69.10
2018-07-06T23:38:06.086Z,69.30
2018-07-06T23:40:34.688Z,69.10
2018-07-06T23:43:03.384Z,69.30
2018-07-06T23:45:31.843Z,69.20
2018-07-06T23:48:01.052Z,69.10
2018-07-06T23:50:34.305Z,69.10
2018-07-06T23:53:03.862Z,69.60
2018-07-06T23:55:32.353Z,69.50
2018-07-06T23:58:01.408Z,69.50
